createdAt,value
2023-04-09T00:19:39.643Z,98.38
2023-04-09T00:33:00.618Z,97.50
2023-04-09T00:35:47.277Z,98.03
2023-04-09T00:39:26.577Z,98.17
2023-04-09T00:43:10.867Z,98.87
2023-04-09T00:57:53.837Z,98.27
2023-04-09T01:01:51.129Z,98.56
2023-04-09T01:20:18.291Z,98.82
2023-04-09T01:23:44.158Z,99.20
2023-04-09T01:27:35.719Z,99.79
2023-04-09T01:30:23.902Z,100.00
2023-04-09T01:38:46.953Z,100.00
2023-04-09T01:42:36.981Z,100.00
2023-04-09T01:46:26.176Z,100.00
2023-04-09T01:50:05.850Z,100.00
2023-04-09T01:53:02.335Z,100.00
2023-04-09T01:56:54.273Z,100.00
2023-04-09T02:00:42.618Z,100.00
2023-04-09T02:04:06.398Z,100.00
2023-04-09T02:07:59.665Z,100.00
2023-04-09T02:11:44.837Z,100.00
2023-04-09T02:16:27.856Z,100.00
2023-04-09T02:20:05.059Z,100.00
2023-04-09T02:23:09.864Z,100.00
2023-04-09T02:36:55.505Z,100.00
2023-04-09T02:51:15.940Z,99.65
2023-04-09T02:54:26.733Z,99.80
2023-04-09T02:59:18.383Z,100.00
2023-04-09T03:12:56.982Z,99.46
2023-04-09T03:15:39.827Z,99.69
2023-04-09T03:40:17.186Z,99.79
2023-04-09T03:48:16.266Z,100.00
2023-04-09T03:51:57.402Z,100.00
2023-04-09T03:55:48.593Z,100.00
2023-04-09T03:59:30.672Z,100.00
2023-04-09T04:03:21.186Z,100.00
2023-04-09T04:07:20.346Z,100.00
2023-04-09T04:10:55.705Z,100.00
2023-04-09T04:14:08.056Z,100.00
2023-04-09T04:29:26.890Z,100.00
2023-04-09T04:32:18.035Z,100.00
2023-04-09T04:35:48.742Z,100.00
2023-04-09T04:39:36.326Z,100.00
2023-04-09T04:43:05.045Z,100.00
2023-04-09T04:47:02.700Z,100.00
2023-04-09T04:51:01.019Z,100.00
2023-04-09T05:05:14.645Z,100.00
2023-04-09T05:18:40.364Z,100.00
2023-04-09T05:22:12.198Z,100.00
2023-04-09T05:24:42.416Z,100.00
2023-04-09T05:27:10.333Z,100.00
2023-04-09T05:29:38.065Z,99.44
2023-04-09T05:32:06.922Z,98.54
2023-04-09T05:34:35.484Z,97.85
2023-04-09T05:37:03.815Z,97.23
2023-04-09T05:39:34.192Z,96.64
2023-04-09T05:42:02.307Z,96.75
2023-04-09T05:44:30.747Z,95.62
2023-04-09T05:46:59.175Z,94.66
2023-04-09T05:49:27.564Z,93.42
2023-04-09T05:51:56.312Z,92.31
2023-04-09T05:54:24.781Z,87.03
2023-04-09T05:56:53.421Z,81.71
2023-04-09T05:59:21.629Z,80.32
2023-04-09T06:01:49.796Z,81.35
2023-04-09T06:04:18.311Z,82.17
2023-04-09T06:06:47.297Z,82.25
2023-04-09T06:09:15.811Z,82.73
2023-04-09T06:11:44.128Z,83.01
2023-04-09T06:14:18.087Z,83.33
2023-04-09T06:16:47.595Z,83.63
2023-04-09T06:19:19.602Z,82.54
2023-04-09T06:21:47.793Z,81.52
2023-04-09T06:24:15.847Z,81.97
2023-04-09T06:26:44.516Z,82.38
2023-04-09T06:29:13.095Z,82.21
2023-04-09T06:31:42.099Z,82.20
2023-04-09T06:34:11.228Z,83.09
2023-04-09T06:36:40.657Z,83.14
2023-04-09T06:39:08.815Z,82.26
2023-04-09T06:41:37.449Z,80.79
2023-04-09T06:44:05.854Z,80.37
2023-04-09T06:46:33.980Z,80.08
2023-04-09T06:49:02.604Z,79.46
2023-04-09T06:51:32.023Z,79.06
2023-04-09T06:54:00.370Z,80.02
2023-04-09T06:56:28.793Z,79.26
2023-04-09T06:58:57.022Z,78.00
2023-04-09T07:01:26.932Z,77.82
2023-04-09T07:04:01.643Z,77.75
2023-04-09T07:06:30.093Z,77.08
2023-04-09T07:10:11.318Z,76.64
2023-04-09T07:12:39.674Z,77.47
2023-04-09T07:15:08.555Z,75.50
2023-04-09T07:17:37.103Z,76.31
2023-04-09T07:20:06.153Z,76.41
2023-04-09T07:25:12.558Z,76.35
2023-04-09T07:27:41.092Z,78.05
2023-04-09T07:30:10.915Z,78.15
2023-04-09T07:32:39.984Z,77.58
2023-04-09T07:35:09.967Z,76.81
2023-04-09T07:37:39.120Z,74.83
2023-04-09T07:40:08.580Z,74.76
2023-04-09T07:42:40.243Z,74.67
2023-04-09T07:45:09.045Z,74.20
2023-04-09T07:47:38.748Z,73.85
2023-04-09T07:50:08.062Z,74.61
2023-04-09T07:52:36.528Z,75.57
2023-04-09T07:55:05.335Z,75.96
2023-04-09T07:57:34.218Z,74.99
2023-04-09T08:00:02.662Z,73.11
2023-04-09T08:02:31.430Z,73.26
2023-04-09T08:05:00.656Z,72.85
2023-04-09T08:07:53.551Z,71.89
2023-04-09T08:10:51.820Z,69.92
2023-04-09T08:14:48.428Z,70.34
2023-04-09T08:17:38.052Z,69.63
2023-04-09T08:20:06.243Z,68.03
2023-04-09T08:22:34.225Z,67.23
2023-04-09T08:25:02.906Z,67.25
2023-04-09T08:27:30.088Z,66.14
2023-04-09T08:30:47.986Z,66.92
2023-04-09T08:34:28.808Z,67.08
2023-04-09T08:38:16.691Z,66.12
2023-04-09T08:41:48.563Z,66.57
2023-04-09T08:45:28.347Z,66.65
2023-04-09T08:48:00.133Z,67.31
2023-04-09T08:50:29.416Z,66.17
2023-04-09T08:52:59.494Z,65.07
2023-04-09T08:55:28.385Z,65.79
2023-04-09T08:57:58.449Z,65.63
2023-04-09T09:00:27.454Z,65.22
2023-04-09T09:03:12.105Z,63.04
2023-04-09T09:05:45.856Z,62.61
2023-04-09T09:08:24.501Z,62.75
2023-04-09T09:10:53.206Z,62.41
2023-04-09T09:13:30.574Z,61.96
2023-04-09T09:16:21.293Z,58.61
2023-04-09T09:18:50.202Z,57.26
2023-04-09T09:21:19.916Z,56.88
2023-04-09T09:23:50.702Z,56.72
2023-04-09T09:26:21.769Z,57.20
2023-04-09T09:29:15.956Z,55.39
2023-04-09T09:31:55.249Z,54.24
2023-04-09T09:45:19.590Z,53.69
2023-04-09T09:48:21.632Z,52.76
2023-04-09T10:02:48.740Z,52.50
2023-04-09T10:06:15.410Z,51.50
2023-04-09T10:09:20.463Z,49.77
2023-04-09T10:13:07.931Z,50.18
2023-04-09T10:15:36.655Z,50.84
2023-04-09T10:18:06.621Z,51.15
2023-04-09T10:25:07.390Z,52.84
2023-04-09T10:28:17.979Z,52.55
2023-04-09T10:31:52.362Z,53.97
2023-04-09T10:35:04.274Z,48.94
2023-04-09T10:37:32.024Z,44.75
2023-04-09T10:39:59.864Z,41.32
2023-04-09T10:42:35.649Z,40.55
2023-04-09T10:45:15.032Z,42.74
2023-04-09T10:50:35.995Z,46.23
2023-04-09T10:53:04.156Z,47.01
2023-04-09T10:55:31.037Z,48.58
2023-04-09T10:58:17.995Z,49.06
2023-04-09T11:00:50.801Z,50.11
2023-04-09T11:05:24.383Z,51.77
2023-04-09T11:08:06.376Z,51.72
2023-04-09T11:10:34.413Z,51.11
2023-04-09T11:13:03.547Z,49.55
2023-04-09T11:15:34.685Z,49.79
2023-04-09T11:18:03.686Z,48.20
2023-04-09T11:20:34.232Z,47.22
2023-04-09T11:23:02.700Z,46.22
2023-04-09T11:25:33.325Z,45.41
2023-04-09T11:28:05.308Z,45.85
2023-04-09T11:30:34.519Z,43.04
2023-04-09T11:33:02.806Z,40.74
2023-04-09T11:38:14.740Z,37.03
2023-04-09T11:43:21.183Z,36.27
2023-04-09T11:47:44.513Z,38.22
2023-04-09T12:16:10.065Z,41.66
2023-04-09T12:21:32.931Z,36.60
2023-04-09T12:28:36.499Z,36.23
2023-04-09T12:31:30.262Z,38.76
2023-04-09T12:35:02.381Z,41.06
2023-04-09T12:41:46.541Z,45.18
2023-04-09T13:46:59.845Z,78.55
2023-04-09T13:50:49.407Z,85.67
2023-04-09T13:59:20.991Z,88.02
2023-04-09T14:15:25.873Z,93.41
2023-04-09T14:17:54.184Z,90.50
2023-04-09T14:20:26.029Z,88.12
2023-04-09T14:22:55.932Z,88.36
2023-04-09T14:26:24.048Z,88.88
2023-04-09T14:34:11.793Z,90.67
2023-04-09T14:38:26.793Z,88.76
2023-04-09T15:08:17.274Z,43.79
2023-04-09T15:15:50.303Z,37.08
2023-04-09T15:18:49.123Z,36.40
2023-04-09T15:25:25.918Z,34.49
2023-04-09T15:27:53.579Z,33.70
2023-04-09T15:35:33.578Z,31.15
2023-04-09T19:07:33.256Z,94.25
